Wels, Austria
Current Conditions -  °F | °C
As of 3:20 AM on Saturday 25 Oct 2014 (Local Time) from LOWL Reporting Station
Broken Clouds Broken Clouds  
Wind Chill: 39°   Ceiling: 800
Heat Index: 45°   Visibility: 4mi
Dew Point: 43°   Wind: 10mph
Humidity: 93%   Direction: 80°E
Pressure: 30.15"   Gusts: NA
Location:  48.17°N, 14.03°E
Report Text: LOWL 250120Z AUTO 08009KT 7000 FEW004 BKN008 07/06 Q1021
Loading
Personal Weather Stations






























Interactive Weather Map
Tropical Storm Tracking
New forecast layout! Learn more

10-Day Weather Forecast

Advertisements
Track Severe Weather on mobile